Gays Mills, Wisconsin
Current Conditions -  °F | °C
As of 8:06 AM on Monday 24 Nov 2014 (Local Time) from KOVS Reporting Station
Light Snow Light Snow  
Wind Chill: 27°   Ceiling: 1200
Heat Index: 34°   Visibility: 0.75mi
Dew Point: 31°   Wind: 8mph
Humidity: 89%   Direction: 240°WSW
Pressure: 29.22"   Gusts: NA
Location:  43.32°N, 90.84°W
Report Text: KOVS 241406Z AUTO 24007KT 3/4SM -SN BR OVC012 01/M01 A2922 RMK AO2 P0001 T00111006
Loading
Personal Weather Stations






























Interactive Weather Map New forecast layout! Learn more

10-Day Weather Forecast

Advertisements
Track Severe Weather on mobile